Time;durP1;ratioP1;P1;durP2;ratioP2;P2;SDS_P1;SDS_P2;PMS_P1;PMS_P2;Temp;Humidity;BMP_temperature;BMP_pressure;BME280_temperature;BME280_humidity;BME280_pressure;Samples;Min_cycle;Max_cycle;Signal;HPM_P1;HPM_P2
2021/10/20 00:01:10;;;;;;;6.00;5.40;;;14.90;99.90;;;;;;5034357;28;20071;-79
2021/10/20 00:03:35;;;;;;;9.75;6.22;;;14.90;99.90;;;;;;5041320;28;20721;-79
2021/10/20 00:06:01;;;;;;;9.02;5.93;;;14.90;99.90;;;;;;5032193;28;20057;-79
2021/10/20 00:08:27;;;;;;;7.00;5.65;;;15.00;99.90;;;;;;5027772;28;20582;-80
2021/10/20 00:10:52;;;;;;;7.15;5.70;;;15.00;99.90;;;;;;5026709;28;20049;-79
2021/10/20 00:13:19;;;;;;;8.82;6.20;;;15.00;99.90;;;;;;5039979;28;20482;-80
2021/10/20 00:15:45;;;;;;;7.38;5.45;;;15.00;99.90;;;;;;5041981;28;20026;-79
2021/10/20 00:18:11;;;;;;;8.45;5.47;;;15.00;99.90;;;;;;5031707;28;20026;-79
2021/10/20 00:20:38;;;;;;;7.68;5.45;;;15.00;99.90;;;;;;5028707;28;20087;-80
2021/10/20 00:23:04;;;;;;;7.00;5.82;;;15.00;99.90;;;;;;5044335;28;20035;-78
2021/10/20 00:25:29;;;;;;;7.18;5.15;;;15.00;99.90;;;;;;5036272;28;20493;-79
2021/10/20 00:27:55;;;;;;;7.20;4.70;;;15.00;99.90;;;;;;5040849;28;20035;-78
2021/10/20 00:30:21;;;;;;;6.30;4.82;;;15.10;99.90;;;;;;5033570;28;20048;-79
2021/10/20 00:32:46;;;;;;;6.57;5.43;;;15.00;99.90;;;;;;5031879;28;20030;-79
2021/10/20 00:35:12;;;;;;;6.80;4.75;;;15.00;99.90;;;;;;5031938;28;20029;-79
2021/10/20 00:37:38;;;;;;;6.15;5.03;;;15.00;99.90;;;;;;5033184;28;20029;-79
2021/10/20 00:40:05;;;;;;;5.00;4.50;;;15.00;99.90;;;;;;5041430;28;20068;-79
2021/10/20 00:42:31;;;;;;;5.70;4.57;;;15.00;99.90;;;;;;5035630;28;20496;-79
2021/10/20 00:44:59;;;;;;;5.72;4.80;;;15.00;99.90;;;;;;5043200;28;20037;-79
2021/10/20 00:47:25;;;;;;;13.02;4.90;;;15.00;99.90;;;;;;5033081;28;20060;-79
2021/10/20 00:49:51;;;;;;;5.45;4.03;;;15.00;99.90;;;;;;5030896;28;20095;-78
2021/10/20 00:52:22;;;;;;;5.03;4.53;;;15.00;99.90;;;;;;5050201;28;20058;-79
2021/10/20 00:54:53;;;;;;;5.38;4.05;;;14.90;99.90;;;;;;5041734;28;20025;-79
2021/10/20 00:57:20;;;;;;;5.57;3.53;;;14.90;99.90;;;;;;5048601;28;20458;-78
2021/10/20 00:59:45;;;;;;;5.05;3.97;;;14.90;99.90;;;;;;5038811;28;20043;-77
2021/10/20 01:02:11;;;;;;;4.65;4.07;;;14.90;99.90;;;;;;5041964;28;20030;-78
2021/10/20 01:04:37;;;;;;;5.80;3.90;;;14.90;99.90;;;;;;5042176;28;20484;-79
2021/10/20 01:07:04;;;;;;;5.20;4.13;;;14.90;99.90;;;;;;5031093;28;20038;-78
2021/10/20 01:09:30;;;;;;;4.82;3.63;;;14.90;99.90;;;;;;5030777;28;20038;-77
2021/10/20 01:11:56;;;;;;;5.35;4.00;;;14.90;99.90;;;;;;5032405;28;20693;-78
2021/10/20 01:14:22;;;;;;;4.78;3.72;;;14.90;99.90;;;;;;5034698;28;20033;-77
2021/10/20 01:16:48;;;;;;;3.92;3.35;;;14.90;99.90;;;;;;5034142;28;20030;-77
2021/10/20 01:19:15;;;;;;;6.57;3.92;;;14.90;99.80;;;;;;5030697;28;20531;-78
2021/10/20 01:21:41;;;;;;;4.05;3.60;;;14.90;99.80;;;;;;5042713;28;20052;-77
2021/10/20 01:24:07;;;;;;;5.43;3.70;;;14.90;99.80;;;;;;5048532;28;20428;-77
2021/10/20 01:26:33;;;;;;;4.00;3.47;;;14.90;99.80;;;;;;5047247;28;20604;-77
2021/10/20 01:28:59;;;;;;;4.68;3.63;;;15.00;99.70;;;;;;5035492;28;20045;-79
2021/10/20 01:31:25;;;;;;;4.78;3.42;;;15.00;99.60;;;;;;5031962;28;20025;-77
2021/10/20 01:33:50;;;;;;;3.92;3.15;;;14.90;99.60;;;;;;5046928;28;20104;-78
2021/10/20 01:36:16;;;;;;;3.92;3.15;;;15.00;99.50;;;;;;5041032;28;20051;-78
2021/10/20 01:38:41;;;;;;;4.10;3.15;;;15.00;99.50;;;;;;5042022;28;20061;-79
2021/10/20 01:41:07;;;;;;;3.90;3.50;;;15.00;99.60;;;;;;5030821;28;20025;-78
2021/10/20 01:43:40;;;;;;;4.60;3.22;;;15.00;99.50;;;;;;5044513;28;20033;-77
2021/10/20 01:46:08;;;;;;;5.63;3.38;;;15.00;99.50;;;;;;5038844;28;20425;-79
2021/10/20 01:48:34;;;;;;;5.20;3.47;;;14.90;99.50;;;;;;5029301;28;20026;-78
2021/10/20 01:50:59;;;;;;;4.35;3.50;;;15.00;99.40;;;;;;5050105;28;20234;-77
2021/10/20 01:53:25;;;;;;;6.70;3.67;;;15.00;99.40;;;;;;5048064;28;20091;-77
2021/10/20 01:55:51;;;;;;;3.97;3.35;;;15.00;99.30;;;;;;5049393;28;20831;-77
2021/10/20 01:58:17;;;;;;;5.43;3.15;;;14.90;99.30;;;;;;5049510;28;20029;-77
2021/10/20 02:00:43;;;;;;;8.05;3.30;;;15.00;99.20;;;;;;5030308;28;20048;-78
2021/10/20 02:03:08;;;;;;;3.90;3.03;;;14.90;99.20;;;;;;5044031;28;20109;-78
2021/10/20 02:05:34;;;;;;;5.03;2.80;;;14.90;99.20;;;;;;5032710;28;20452;-77
2021/10/20 02:07:59;;;;;;;3.50;3.05;;;14.90;99.20;;;;;;5049546;28;20033;-79
2021/10/20 02:10:25;;;;;;;3.30;2.80;;;14.80;99.50;;;;;;5049698;28;20045;-77
2021/10/20 02:12:50;;;;;;;4.65;3.08;;;14.80;99.20;;;;;;5033114;28;20681;-80
2021/10/20 02:15:16;;;;;;;3.92;2.90;;;14.80;99.20;;;;;;5030488;28;20140;-79
2021/10/20 02:17:41;;;;;;;5.85;3.40;;;14.80;99.10;;;;;;5029920;28;20386;-80
2021/10/20 02:20:09;;;;;;;3.45;2.67;;;14.80;99.10;;;;;;5037752;28;20033;-80
2021/10/20 02:22:35;;;;;;;4.82;2.85;;;14.70;99.10;;;;;;5033174;28;20056;-77
2021/10/20 02:25:01;;;;;;;3.22;2.80;;;14.70;99.10;;;;;;5024136;28;20475;-78
2021/10/20 02:27:27;;;;;;;3.22;2.55;;;14.70;99.10;;;;;;5033467;28;20036;-77
2021/10/20 02:29:52;;;;;;;3.63;2.70;;;14.70;99.00;;;;;;5023048;28;20050;-79
2021/10/20 02:32:18;;;;;;;2.88;2.60;;;14.80;99.00;;;;;;5025648;28;20032;-80
2021/10/20 02:34:43;;;;;;;3.95;3.00;;;14.70;98.90;;;;;;5013327;28;20467;-79
2021/10/20 02:37:09;;;;;;;3.65;2.72;;;14.70;98.80;;;;;;5018153;28;20467;-81
2021/10/20 02:39:34;;;;;;;3.50;2.55;;;14.70;98.80;;;;;;5024198;28;20084;-80
2021/10/20 02:42:00;;;;;;;2.63;2.13;;;14.70;98.70;;;;;;5025492;28;20052;-77
2021/10/20 02:44:25;;;;;;;5.32;3.85;;;14.70;98.70;;;;;;5029802;28;20041;-79
2021/10/20 02:46:51;;;;;;;3.53;2.67;;;14.70;98.60;;;;;;5040659;28;20401;-76
2021/10/20 02:49:16;;;;;;;3.90;2.75;;;14.70;98.50;;;;;;5044209;28;20049;-79
2021/10/20 02:51:42;;;;;;;5.13;2.65;;;14.80;98.50;;;;;;5030129;28;20039;-77
2021/10/20 02:54:07;;;;;;;3.65;2.58;;;14.70;98.40;;;;;;5047547;28;20029;-76
2021/10/20 02:56:33;;;;;;;3.38;2.65;;;14.80;98.30;;;;;;5032453;28;20433;-78
2021/10/20 02:58:59;;;;;;;3.67;2.90;;;14.80;98.30;;;;;;5045297;28;20047;-78
2021/10/20 03:01:24;;;;;;;3.15;2.38;;;14.80;98.20;;;;;;5042285;28;20037;-77
2021/10/20 03:03:50;;;;;;;3.60;2.38;;;14.80;98.10;;;;;;5031534;28;20036;-81
2021/10/20 03:06:16;;;;;;;3.72;2.30;;;14.80;98.10;;;;;;5063059;28;20017;-79
2021/10/20 03:08:42;;;;;;;4.65;2.85;;;14.80;98.10;;;;;;5043180;28;20037;-78
2021/10/20 03:11:07;;;;;;;2.88;2.58;;;14.80;97.90;;;;;;5035256;28;20531;-78
2021/10/20 03:13:33;;;;;;;6.70;2.70;;;14.80;97.90;;;;;;5040450;28;20085;-78
2021/10/20 03:15:58;;;;;;;3.60;2.20;;;14.80;97.80;;;;;;5030166;28;20466;-78
2021/10/20 03:18:24;;;;;;;3.30;2.65;;;14.80;97.70;;;;;;5040707;28;20424;-78
2021/10/20 03:20:52;;;;;;;10.50;2.50;;;14.80;97.60;;;;;;5033386;28;20109;-78
2021/10/20 03:23:18;;;;;;;5.15;2.67;;;14.90;97.50;;;;;;5034447;28;20037;-78
2021/10/20 03:25:43;;;;;;;3.60;2.35;;;14.90;97.50;;;;;;5035178;28;20036;-78
2021/10/20 03:28:09;;;;;;;4.32;3.00;;;14.90;97.40;;;;;;5050668;28;20079;-78
2021/10/20 03:30:34;;;;;;;2.95;2.28;;;15.00;97.20;;;;;;5053591;28;20045;-78
2021/10/20 03:33:00;;;;;;;3.72;2.58;;;15.00;97.10;;;;;;5054123;28;20092;-80
2021/10/20 03:35:25;;;;;;;4.15;2.33;;;15.00;97.10;;;;;;5034301;28;20029;-78
2021/10/20 03:37:51;;;;;;;6.45;2.72;;;15.00;97.00;;;;;;5037596;28;20464;-77
2021/10/20 03:40:16;;;;;;;2.72;2.03;;;15.00;97.00;;;;;;5032522;28;20049;-77
2021/10/20 03:42:43;;;;;;;2.78;2.13;;;15.00;97.00;;;;;;5043704;28;20469;-80
2021/10/20 03:45:10;;;;;;;4.43;2.17;;;15.00;97.00;;;;;;5030104;28;20378;-79
2021/10/20 03:47:35;;;;;;;3.13;2.13;;;15.00;97.00;;;;;;5045630;28;20444;-79
2021/10/20 03:50:01;;;;;;;4.90;2.63;;;15.00;97.00;;;;;;5036419;28;20049;-80
2021/10/20 03:52:27;;;;;;;2.92;2.00;;;15.00;97.30;;;;;;5030978;28;20082;-77
2021/10/20 03:54:52;;;;;;;3.58;2.47;;;15.00;97.10;;;;;;5031118;28;20033;-80
2021/10/20 03:57:18;;;;;;;3.58;2.78;;;14.90;97.00;;;;;;5039736;28;20025;-77
2021/10/20 03:59:44;;;;;;;4.20;2.45;;;14.90;97.00;;;;;;5049060;28;20042;-78
2021/10/20 04:02:10;;;;;;;3.47;2.55;;;14.90;97.00;;;;;;5047163;28;20401;-78
2021/10/20 04:04:36;;;;;;;3.88;2.47;;;14.90;96.90;;;;;;5032748;28;20108;-78
2021/10/20 04:07:05;;;;;;;2.55;2.10;;;14.90;96.80;;;;;;5034660;28;20126;-78
2021/10/20 04:09:31;;;;;;;2.90;2.28;;;14.90;96.70;;;;;;5039258;28;20069;-79
2021/10/20 04:11:56;;;;;;;2.88;2.20;;;14.90;96.70;;;;;;5048660;28;20114;-80
2021/10/20 04:14:22;;;;;;;3.03;2.05;;;14.90;96.70;;;;;;5047665;28;20095;-79
2021/10/20 04:16:47;;;;;;;3.67;1.98;;;14.80;96.70;;;;;;5037445;28;20470;-77
2021/10/20 04:19:13;;;;;;;3.33;2.22;;;14.80;96.60;;;;;;5031616;28;20048;-76
2021/10/20 04:21:38;;;;;;;2.72;2.17;;;14.80;96.50;;;;;;5032236;28;20563;-77
2021/10/20 04:24:04;;;;;;;2.97;2.28;;;14.80;96.50;;;;;;5031899;28;20035;-77
2021/10/20 04:26:30;;;;;;;4.65;2.20;;;14.80;96.40;;;;;;5032797;28;20478;-76
2021/10/20 04:28:55;;;;;;;5.00;2.17;;;14.80;96.30;;;;;;5031771;28;20116;-77
2021/10/20 04:31:21;;;;;;;2.42;1.70;;;14.80;96.30;;;;;;5046496;28;20056;-80
2021/10/20 04:33:46;;;;;;;4.45;2.10;;;14.80;96.20;;;;;;5039396;28;20091;-80
2021/10/20 04:36:12;;;;;;;4.05;1.80;;;14.80;96.20;;;;;;5030852;28;20028;-79
2021/10/20 04:38:37;;;;;;;4.03;2.40;;;14.70;96.30;;;;;;5026574;28;20382;-78
2021/10/20 04:41:03;;;;;;;4.18;2.20;;;14.70;96.30;;;;;;5034979;28;20181;-78
2021/10/20 04:43:29;;;;;;;3.50;2.15;;;14.70;96.30;;;;;;5028630;28;20439;-78
2021/10/20 04:45:54;;;;;;;2.53;1.90;;;14.70;96.40;;;;;;5030123;28;20048;-79
2021/10/20 04:48:21;;;;;;;2.00;1.70;;;14.70;96.30;;;;;;5032517;28;20410;-80
2021/10/20 04:50:46;;;;;;;5.85;2.55;;;14.70;96.30;;;;;;5033814;28;20072;-77
2021/10/20 04:53:12;;;;;;;4.15;2.30;;;14.60;96.30;;;;;;5033287;28;20504;-77
2021/10/20 04:55:37;;;;;;;2.80;2.10;;;14.60;96.30;;;;;;5032589;28;20069;-78
2021/10/20 04:58:08;;;;;;;2.70;1.90;;;14.60;96.30;;;;;;5026525;28;20112;-79
2021/10/20 05:00:36;;;;;;;3.05;1.92;;;14.60;96.00;;;;;;5027766;28;20025;-79
2021/10/20 05:03:01;;;;;;;3.85;2.65;;;14.60;96.10;;;;;;5022621;28;20083;-80
2021/10/20 05:05:30;;;;;;;2.90;1.90;;;14.60;96.10;;;;;;5027376;28;20429;-79
2021/10/20 05:07:58;;;;;;;3.92;1.95;;;14.60;96.00;;;;;;5027052;28;20040;-79
2021/10/20 05:10:26;;;;;;;2.53;2.05;;;14.60;96.00;;;;;;5034749;28;20040;-79
2021/10/20 05:12:53;;;;;;;5.07;1.80;;;14.60;95.80;;;;;;5052661;28;20033;-79
2021/10/20 05:15:19;;;;;;;6.10;2.28;;;14.60;95.90;;;;;;5027445;28;20033;-79
2021/10/20 05:17:45;;;;;;;2.50;2.13;;;14.60;95.80;;;;;;5027486;28;20033;-79
2021/10/20 05:20:13;;;;;;;1.95;1.75;;;14.60;95.60;;;;;;5028236;28;20034;-77
2021/10/20 05:22:40;;;;;;;2.05;1.60;;;14.60;95.60;;;;;;5027241;28;20025;-79
2021/10/20 05:25:07;;;;;;;3.67;2.45;;;14.60;95.60;;;;;;5026217;28;20112;-79
2021/10/20 05:27:33;;;;;;;2.75;1.65;;;14.60;95.40;;;;;;5026961;28;20093;-76
2021/10/20 05:30:00;;;;;;;4.38;2.50;;;14.60;95.50;;;;;;5018022;28;20047;-77
2021/10/20 05:32:26;;;;;;;3.30;2.70;;;14.60;95.70;;;;;;5026272;28;20033;-78
2021/10/20 05:34:52;;;;;;;2.05;1.83;;;14.60;95.40;;;;;;5025946;28;20531;-78
2021/10/20 05:37:18;;;;;;;5.80;2.05;;;14.60;95.30;;;;;;5027038;28;20032;-77
2021/10/20 05:39:44;;;;;;;2.22;1.60;;;14.60;95.30;;;;;;5026829;28;20437;-76
2021/10/20 05:42:10;;;;;;;2.90;2.13;;;14.60;95.30;;;;;;5026461;28;20585;-80
2021/10/20 05:44:36;;;;;;;1.95;1.50;;;14.70;95.20;;;;;;5020759;28;20038;-78
2021/10/20 05:47:02;;;;;;;2.92;2.30;;;14.60;95.20;;;;;;5030067;28;20055;-78
2021/10/20 05:49:27;;;;;;;2.20;1.73;;;14.70;95.10;;;;;;5029796;28;20037;-78
2021/10/20 05:51:53;;;;;;;3.63;1.90;;;14.60;95.00;;;;;;5026916;28;20466;-79
2021/10/20 05:54:18;;;;;;;3.47;2.10;;;14.60;95.00;;;;;;5026622;28;20140;-78
2021/10/20 05:56:44;;;;;;;2.78;1.90;;;14.60;95.00;;;;;;5037522;28;20128;-80
2021/10/20 05:59:10;;;;;;;6.68;2.38;;;14.60;95.00;;;;;;5025149;28;20033;-77
2021/10/20 06:01:35;;;;;;;5.75;2.03;;;14.60;94.80;;;;;;5024452;28;20057;-76
2021/10/20 06:04:01;;;;;;;3.75;2.05;;;14.60;94.70;;;;;;5027073;28;20045;-79
2021/10/20 06:06:27;;;;;;;3.25;1.85;;;14.70;94.50;;;;;;5021541;28;20033;-79
2021/10/20 06:08:53;;;;;;;4.40;1.80;;;14.70;94.60;;;;;;5025604;28;20034;-79
2021/10/20 06:11:19;;;;;;;2.72;1.75;;;14.70;94.80;;;;;;5029717;28;20029;-77
2021/10/20 06:13:45;;;;;;;2.83;1.80;;;14.70;94.40;;;;;;5028721;28;20037;-78
2021/10/20 06:16:11;;;;;;;3.30;2.05;;;14.80;94.20;;;;;;5015192;28;20033;-79
2021/10/20 06:18:37;;;;;;;2.25;1.60;;;14.80;94.10;;;;;;5022941;28;20065;-79
2021/10/20 06:21:03;;;;;;;3.25;1.75;;;14.90;94.10;;;;;;5020576;28;20021;-77
2021/10/20 06:23:29;;;;;;;5.32;1.60;;;14.90;93.80;;;;;;5028297;28;20075;-79
2021/10/20 06:25:54;;;;;;;3.40;1.65;;;14.90;93.50;;;;;;5029186;28;20072;-80
2021/10/20 06:28:20;;;;;;;3.55;2.00;;;14.90;93.70;;;;;;5018809;28;20067;-79
2021/10/20 06:30:45;;;;;;;2.83;1.95;;;15.00;93.70;;;;;;5032934;28;20049;-79
2021/10/20 06:33:11;;;;;;;3.35;2.45;;;15.00;93.60;;;;;;5024295;28;20033;-80
2021/10/20 06:35:36;;;;;;;7.10;1.48;;;15.10;93.30;;;;;;5014288;28;20061;-79
2021/10/20 06:38:02;;;;;;;1.92;1.33;;;15.10;93.20;;;;;;5014099;28;20105;-78
2021/10/20 06:40:27;;;;;;;6.50;1.95;;;15.20;93.20;;;;;;5035921;28;20080;-78
2021/10/20 06:42:53;;;;;;;2.92;2.17;;;15.20;93.10;;;;;;5026186;28;20033;-79
2021/10/20 06:45:18;;;;;;;2.28;1.55;;;15.20;92.90;;;;;;5015937;28;20021;-79
2021/10/20 06:47:44;;;;;;;7.32;2.10;;;15.30;93.00;;;;;;5019628;28;20410;-79
2021/10/20 06:50:09;;;;;;;3.42;1.55;;;15.40;93.00;;;;;;5008505;28;20068;-77
2021/10/20 06:52:35;;;;;;;4.65;1.80;;;15.40;92.90;;;;;;5028226;28;20033;-77
2021/10/20 06:55:00;;;;;;;5.22;2.40;;;15.50;92.90;;;;;;5025791;28;20030;-78
2021/10/20 06:57:26;;;;;;;2.88;2.47;;;15.50;93.00;;;;;;5026646;28;20033;-77
2021/10/20 06:59:51;;;;;;;5.80;2.10;;;15.60;92.90;;;;;;5025805;28;20063;-77
2021/10/20 07:02:17;;;;;;;2.92;1.77;;;15.60;92.90;;;;;;5042321;28;20526;-77
2021/10/20 07:04:42;;;;;;;3.80;1.95;;;15.60;92.80;;;;;;5039706;28;20098;-77
2021/10/20 07:07:12;;;;;;;3.60;1.95;;;15.70;92.90;;;;;;5026778;28;20028;-79
2021/10/20 07:09:37;;;;;;;3.40;2.08;;;15.70;92.50;;;;;;5031741;28;20033;-79
2021/10/20 07:12:03;;;;;;;2.55;1.85;;;15.80;92.40;;;;;;5037174;28;20850;-79
2021/10/20 07:14:28;;;;;;;3.13;1.73;;;15.80;92.50;;;;;;5026811;28;20041;-79
2021/10/20 07:16:57;;;;;;;2.00;1.58;;;15.90;92.40;;;;;;5031914;28;20829;-79
2021/10/20 07:19:24;;;;;;;2.72;1.77;;;16.00;92.30;;;;;;5033725;28;20029;-78
2021/10/20 07:21:49;;;;;;;6.40;1.77;;;16.00;92.50;;;;;;5032296;28;20144;-80
2021/10/20 07:24:15;;;;;;;2.58;2.08;;;16.10;92.40;;;;;;5033947;28;20424;-80
2021/10/20 07:26:40;;;;;;;3.72;1.52;;;16.10;91.90;;;;;;5027621;28;20091;-78
2021/10/20 07:29:06;;;;;;;3.65;1.60;;;16.20;92.00;;;;;;5027367;28;20052;-79
2021/10/20 07:31:32;;;;;;;4.57;1.50;;;16.20;91.90;;;;;;5031195;28;20130;-78
2021/10/20 07:33:59;;;;;;;2.92;1.50;;;16.30;91.60;;;;;;5028968;28;20401;-78
2021/10/20 07:36:24;;;;;;;3.08;2.00;;;16.30;91.60;;;;;;5035146;28;20040;-79
2021/10/20 07:38:50;;;;;;;5.65;1.60;;;16.30;91.50;;;;;;5028300;28;20025;-80
2021/10/20 07:41:16;;;;;;;5.05;2.03;;;16.40;91.40;;;;;;5043996;28;20036;-79
2021/10/20 07:43:42;;;;;;;3.83;1.60;;;16.40;91.50;;;;;;5035716;28;20049;-79
2021/10/20 07:46:07;;;;;;;1.77;1.48;;;16.40;91.80;;;;;;5023365;28;20736;-81
2021/10/20 07:48:33;;;;;;;3.30;1.85;;;16.50;91.70;;;;;;5024489;28;20674;-79
2021/10/20 07:50:58;;;;;;;8.05;1.70;;;16.50;91.50;;;;;;5035190;28;20128;-79
2021/10/20 07:53:24;;;;;;;4.03;2.33;;;16.60;91.50;;;;;;5025884;28;20049;-79
2021/10/20 07:55:49;;;;;;;6.32;1.95;;;16.60;91.70;;;;;;5027453;28;20075;-79
2021/10/20 07:58:14;;;;;;;3.13;1.50;;;16.70;91.40;;;;;;5033321;28;20029;-79
2021/10/20 08:00:40;;;;;;;2.38;1.55;;;16.70;91.50;;;;;;5029041;28;20041;-80
2021/10/20 08:03:06;;;;;;;5.03;1.80;;;16.70;91.70;;;;;;5049721;28;20075;-79
2021/10/20 08:05:31;;;;;;;2.05;1.60;;;16.80;91.60;;;;;;5036811;28;20036;-79
2021/10/20 08:07:58;;;;;;;3.25;1.95;;;16.80;91.00;;;;;;5025587;28;20485;-78
2021/10/20 08:10:26;;;;;;;4.18;1.50;;;17.00;91.20;;;;;;5037971;28;20052;-78
2021/10/20 08:12:54;;;;;;;2.83;1.77;;;17.00;90.80;;;;;;5036099;28;20044;-78
2021/10/20 08:15:19;;;;;;;4.97;1.58;;;17.10;90.50;;;;;;5036487;28;20094;-78
2021/10/20 08:17:46;;;;;;;4.50;2.03;;;17.20;90.60;;;;;;5025990;28;20037;-78
2021/10/20 08:20:16;;;;;;;2.55;1.70;;;17.30;90.30;;;;;;5026781;28;20037;-78
2021/10/20 08:22:42;;;;;;;3.00;1.55;;;17.30;89.50;;;;;;5030028;28;20037;-78
2021/10/20 08:25:09;;;;;;;3.05;1.60;;;17.40;90.20;;;;;;5027851;28;20022;-79
2021/10/20 08:27:36;;;;;;;3.53;1.92;;;17.50;89.80;;;;;;5030331;28;20128;-79
2021/10/20 08:30:03;;;;;;;3.42;1.58;;;17.50;89.50;;;;;;5028686;28;20041;-78
2021/10/20 08:32:29;;;;;;;4.60;1.85;;;17.50;89.00;;;;;;5026625;28;20098;-79
2021/10/20 08:34:54;;;;;;;2.00;1.48;;;17.50;88.80;;;;;;5035573;28;20482;-77
2021/10/20 08:37:20;;;;;;;2.45;1.60;;;17.60;89.00;;;;;;5025926;28;20037;-79
2021/10/20 08:39:46;;;;;;;2.58;1.60;;;17.60;89.10;;;;;;5025372;28;20065;-81
2021/10/20 08:42:12;;;;;;;2.35;1.60;;;17.60;89.30;;;;;;5025412;28;20496;-79
2021/10/20 08:44:38;;;;;;;4.20;1.63;;;17.70;88.10;;;;;;5032660;28;20041;-78
2021/10/20 08:47:05;;;;;;;7.00;1.90;;;17.80;88.00;;;;;;5028076;28;20033;-78
2021/10/20 08:49:31;;;;;;;2.72;1.88;;;17.80;88.10;;;;;;5029716;28;20039;-78
2021/10/20 08:51:57;;;;;;;4.05;1.63;;;17.90;88.30;;;;;;5029860;28;20041;-79
2021/10/20 08:54:23;;;;;;;2.25;1.45;;;18.00;87.70;;;;;;5030975;28;20037;-77
2021/10/20 08:56:49;;;;;;;2.58;1.58;;;18.10;86.70;;;;;;5030413;28;20467;-78
2021/10/20 08:59:15;;;;;;;3.78;1.92;;;18.20;88.00;;;;;;5026774;28;20040;-78
2021/10/20 09:01:42;;;;;;;2.30;1.50;;;18.30;87.70;;;;;;5030350;28;20127;-79
2021/10/20 09:04:09;;;;;;;4.65;2.88;;;18.30;86.80;;;;;;5031161;28;20045;-78
2021/10/20 09:06:35;;;;;;;1.77;1.40;;;18.40;86.80;;;;;;5033459;28;20025;-78
2021/10/20 09:09:03;;;;;;;2.65;1.67;;;18.50;87.10;;;;;;5027692;28;20086;-78
2021/10/20 09:11:33;;;;;;;5.70;1.45;;;18.50;87.50;;;;;;5031425;28;20608;-78
2021/10/20 09:14:04;;;;;;;3.17;2.15;;;18.60;87.60;;;;;;5028408;28;20461;-78
2021/10/20 09:16:31;;;;;;;4.18;1.90;;;18.60;87.70;;;;;;5022291;28;20021;-77
2021/10/20 09:18:58;;;;;;;3.10;1.60;;;18.60;86.70;;;;;;5029186;28;20025;-78
2021/10/20 09:21:25;;;;;;;2.88;1.40;;;18.80;87.00;;;;;;5027540;28;20054;-78
2021/10/20 09:23:50;;;;;;;2.15;1.67;;;18.90;86.90;;;;;;5024437;28;20124;-78
2021/10/20 09:26:16;;;;;;;2.35;1.85;;;19.00;86.90;;;;;;5027690;28;20064;-78
2021/10/20 09:28:42;;;;;;;2.50;1.73;;;19.00;86.50;;;;;;5026601;28;20057;-78
2021/10/20 09:31:10;;;;;;;3.15;1.80;;;19.10;85.60;;;;;;5027584;28;20041;-78
2021/10/20 09:33:37;;;;;;;6.47;2.10;;;19.20;84.70;;;;;;5028375;28;20045;-77
2021/10/20 09:36:09;;;;;;;3.92;2.15;;;19.20;86.00;;;;;;5027217;28;20037;-78
2021/10/20 09:38:46;;;;;;;4.83;2.03;;;19.30;84.20;;;;;;5027310;28;20124;-79
2021/10/20 09:41:12;;;;;;;2.42;1.75;;;19.30;85.30;;;;;;5030619;28;20429;-78
2021/10/20 09:43:43;;;;;;;3.03;1.48;;;19.30;84.20;;;;;;5049192;28;20074;-78
2021/10/20 09:46:10;;;;;;;3.90;1.90;;;19.30;85.20;;;;;;5047365;28;20197;-78
2021/10/20 09:48:42;;;;;;;3.45;1.73;;;19.30;85.40;;;;;;5037112;28;20449;-80
2021/10/20 09:51:12;;;;;;;5.88;1.83;;;19.40;83.10;;;;;;5012939;28;20045;-78
2021/10/20 09:53:40;;;;;;;3.45;2.10;;;19.40;84.50;;;;;;5027805;28;20124;-79
2021/10/20 09:56:20;;;;;;;7.28;2.00;;;19.50;84.50;;;;;;5027581;28;20034;-78
2021/10/20 09:58:49;;;;;;;1.95;1.60;;;19.50;83.60;;;;;;5031955;28;20032;-78
2021/10/20 10:01:16;;;;;;;2.65;1.95;;;19.50;82.60;;;;;;5036093;28;20033;-78
2021/10/20 10:03:42;;;;;;;5.03;2.50;;;19.50;83.90;;;;;;5025814;28;20083;-78
2021/10/20 10:06:07;;;;;;;3.28;1.60;;;19.60;84.00;;;;;;5027552;28;20033;-78
2021/10/20 10:08:33;;;;;;;3.67;2.15;;;19.60;82.80;;;;;;5025760;28;20490;-78
2021/10/20 10:10:59;;;;;;;3.30;1.85;;;19.60;84.10;;;;;;5027779;28;20933;-78
2021/10/20 10:13:29;;;;;;;2.78;1.98;;;19.60;82.70;;;;;;5026884;28;20052;-78
2021/10/20 10:15:55;;;;;;;5.13;1.45;;;19.70;83.50;;;;;;5027896;28;20136;-77
2021/10/20 10:18:22;;;;;;;2.97;1.65;;;19.70;83.50;;;;;;5029036;28;20034;-78
2021/10/20 10:20:47;;;;;;;2.58;1.80;;;19.80;83.70;;;;;;5027726;28;20444;-78
2021/10/20 10:23:30;;;;;;;2.47;1.80;;;19.80;83.80;;;;;;5029246;28;20113;-78
2021/10/20 10:26:01;;;;;;;4.13;1.85;;;19.90;83.80;;;;;;5029434;28;20498;-78
2021/10/20 10:28:29;;;;;;;3.17;1.92;;;19.90;83.80;;;;;;5027505;28;20043;-78
2021/10/20 10:31:09;;;;;;;3.78;1.70;;;20.00;83.10;;;;;;5030134;28;20494;-78
2021/10/20 10:33:49;;;;;;;1.73;1.58;;;20.10;82.90;;;;;;5028704;28;20053;-77
2021/10/20 10:36:23;;;;;;;4.32;1.92;;;20.20;84.20;;;;;;5035503;28;20064;-78
2021/10/20 10:38:49;;;;;;;3.63;1.95;;;20.20;83.20;;;;;;5037253;28;20599;-78
2021/10/20 10:41:20;;;;;;;3.10;1.88;;;20.30;83.80;;;;;;5027984;28;20025;-80
2021/10/20 10:44:01;;;;;;;2.75;2.17;;;20.30;83.20;;;;;;5034410;28;20033;-78
2021/10/20 10:46:29;;;;;;;3.80;1.70;;;20.40;83.90;;;;;;5029706;28;20470;-79
2021/10/20 10:48:56;;;;;;;2.70;1.58;;;20.60;84.00;;;;;;5028387;28;20021;-79
2021/10/20 10:51:21;;;;;;;3.30;1.80;;;20.70;82.30;;;;;;5028408;28;20437;-79
2021/10/20 10:53:54;;;;;;;4.30;1.70;;;20.80;82.00;;;;;;5033859;28;20076;-80
2021/10/20 10:56:20;;;;;;;2.58;1.70;;;20.90;81.70;;;;;;5045552;28;20039;-79
2021/10/20 10:58:53;;;;;;;3.88;2.45;;;20.90;81.00;;;;;;5026188;28;20667;-80
2021/10/20 11:01:38;;;;;;;;;;;21.00;81.70;;;;;;5029791;28;20037;-79
2021/10/20 11:04:34;;;;;;;2.95;1.58;;;21.10;79.50;;;;;;5035688;28;19909;-78
2021/10/20 11:07:02;;;;;;;2.55;1.48;;;21.20;81.40;;;;;;5030858;28;20095;-79
2021/10/20 11:09:34;;;;;;;2.28;1.60;;;21.20;82.80;;;;;;5036336;28;20132;-79
2021/10/20 11:12:02;;;;;;;2.00;1.60;;;21.30;80.90;;;;;;5027533;28;20585;-79
2021/10/20 11:14:29;;;;;;;3.78;1.63;;;21.40;80.90;;;;;;5040348;28;20071;-80
2021/10/20 11:17:06;;;;;;;2.00;1.35;;;21.50;79.10;;;;;;5031975;28;20378;-79
2021/10/20 11:19:32;;;;;;;2.65;1.63;;;21.60;80.50;;;;;;5031034;28;20033;-81
2021/10/20 11:21:58;;;;;;;2.95;1.83;;;21.70;80.60;;;;;;5025912;28;20045;-79
2021/10/20 11:24:24;;;;;;;1.98;1.35;;;21.70;78.10;;;;;;5025784;28;20013;-81
2021/10/20 11:26:54;;;;;;;3.65;1.40;;;21.80;78.80;;;;;;5026006;28;20025;-79
2021/10/20 11:29:20;;;;;;;4.05;1.58;;;21.80;78.00;;;;;;5025807;28;20026;-79
2021/10/20 11:31:57;;;;;;;1.50;0.98;;;21.90;78.90;;;;;;5027508;28;20057;-79
2021/10/20 11:34:27;;;;;;;2.25;1.60;;;22.00;77.80;;;;;;5027539;28;20113;-79
2021/10/20 11:36:54;;;;;;;1.67;1.40;;;22.10;77.40;;;;;;5042008;28;20044;-80
2021/10/20 11:39:20;;;;;;;1.80;1.33;;;22.20;78.00;;;;;;5026279;28;20056;-79
2021/10/20 11:41:54;;;;;;;2.97;1.73;;;22.30;76.80;;;;;;5025354;28;20051;-80
2021/10/20 11:44:25;;;;;;;2.15;1.58;;;22.30;76.30;;;;;;5040060;28;20033;-79
2021/10/20 11:46:53;;;;;;;3.05;1.67;;;22.30;76.40;;;;;;5027660;28;20038;-78
2021/10/20 11:49:18;;;;;;;2.22;1.20;;;22.30;76.40;;;;;;5006878;28;20128;-79
2021/10/20 11:51:44;;;;;;;3.47;1.38;;;22.20;75.30;;;;;;5024900;28;20104;-79
2021/10/20 11:54:09;;;;;;;1.70;1.40;;;22.20;76.00;;;;;;5028732;28;20132;-79
2021/10/20 11:56:35;;;;;;;3.22;1.50;;;22.20;77.00;;;;;;5026344;28;20409;-79
2021/10/20 11:59:00;;;;;;;3.20;1.55;;;22.10;75.80;;;;;;5025974;28;20037;-78
2021/10/20 12:01:28;;;;;;;4.10;1.50;;;22.10;77.90;;;;;;5036998;28;20034;-79
2021/10/20 12:03:53;;;;;;;3.42;1.45;;;22.00;77.90;;;;;;5007396;28;20066;-78
2021/10/20 12:06:21;;;;;;;3.22;1.85;;;22.00;77.30;;;;;;5030796;28;20091;-79
2021/10/20 12:08:48;;;;;;;3.53;1.67;;;22.00;77.60;;;;;;5034143;28;20551;-79
2021/10/20 12:11:17;;;;;;;3.55;2.03;;;22.00;79.20;;;;;;5028412;28;20100;-78
2021/10/20 12:13:42;;;;;;;3.88;1.75;;;22.00;77.80;;;;;;5027934;28;20105;-79
2021/10/20 12:16:11;;;;;;;4.32;2.10;;;22.10;79.20;;;;;;5028141;28;20117;-79
2021/10/20 12:18:42;;;;;;;5.32;1.77;;;22.10;79.10;;;;;;5028305;28;20502;-80
2021/10/20 12:21:12;;;;;;;1.92;1.50;;;22.10;78.40;;;;;;5031364;28;20228;-79
2021/10/20 12:23:41;;;;;;;2.70;1.70;;;22.00;77.70;;;;;;5038972;28;20538;-79
2021/10/20 12:26:07;;;;;;;1.95;1.48;;;22.00;78.60;;;;;;5044576;28;20026;-79
2021/10/20 12:28:33;;;;;;;2.67;1.58;;;21.90;77.80;;;;;;5033089;28;20076;-79
2021/10/20 12:31:14;;;;;;;3.03;1.50;;;21.70;78.20;;;;;;5030281;28;20575;-79
2021/10/20 12:33:42;;;;;;;3.70;1.65;;;21.60;78.00;;;;;;5030208;28;20044;-79
2021/10/20 12:36:09;;;;;;;2.55;1.83;;;21.50;79.20;;;;;;5030232;28;20022;-79
2021/10/20 12:38:39;;;;;;;2.70;1.55;;;21.40;79.40;;;;;;5031136;28;20104;-78
2021/10/20 12:41:09;;;;;;;2.75;1.90;;;21.40;79.20;;;;;;5030501;28;20029;-79
2021/10/20 12:43:35;;;;;;;4.97;1.80;;;21.40;79.80;;;;;;5028583;28;20033;-79
2021/10/20 12:46:03;;;;;;;3.53;2.30;;;21.40;79.70;;;;;;5035289;28;20051;-79